Terminal Aerodrome Forecast
Issued by NWS Newport/Morehead City, NC

Home | Current Version | Previous Version | Graphics & Text | Print | Product List | Glossary On
Versions: 1 2 3 4 5 6 7 8 9 10 11 12 13 14 15 16 17 18 19 20 21 22 23 24 25
000
FTUS42 KMHX 152300
TAFEWN
TAF
KEWN 152340Z 1600/1624 00000KT P6SM BKN027 OVC035
     FM160700 00000KT 5SM BR BKN010
     FM161500 32004KT P6SM BKN035
     FM161800 16005KT P6SM SCT040=

USA.gov is the U.S. government's official web portal to all federal, state and local government web resources and services.